KAXV

Neil Armstrong Airport

Wapakoneta, Ohio, USA
METAR KAXV 140659Z AUTO 16006KT 10SM CLR 06/01 A3014 RMK AO2
Observed Flight Rules
Dec-14 @ 06:59 UTC (42 minutes ago) Visual Flight Rules
Wind Visibility Clouds
160° at 6 knots 10 miles
  • Clear skies
Temperatures Readings
Current 6°C / 43°F
Dewpoint 1°C / 34°F
Humidity 71%
Altimeter 30.14" Hg
Pressure 1021 hPa
Elevation 279
METAR KAXV 140659Z AUTO 16006KT 10SM CLR 06/01 A3014 RMK AO2
Observed Flight Rules
Dec-14 @ 06:59 UTC
(42 minutes ago)
VFR
Wind Visibility
160° at 6 knots 10 miles
Clouds
  • Clear skies
Temperature Dewpoint
6°C / 43°F 1°C / 34°F
Humidity Altimeter Pressure
71% 30.14" Hg 1021 hPa